aviador You're here:

KUGN Decoded Metar

CHICAGO in IL, USA
Report Time2017-06-24 16:55:00
UTC Time2017-06-24 17:20:24
Flight Rules vfr VFR
Wind300° at 08 Gusting to 16 kt
W.Decomp.*RWY 32: 7.7 kt HW 2.3 kt LCW
RWY 23: 2.3 kt HW 7.7 kt RCW
W.Rank300° ranks 5
Current wind is above 300° avg. (6.6)
Visibility9999 m
Phenomena:N/A
Clouds:Broken 044 Hf
Broken 065 Hf
Broken 080 Hf
Expected CloudBase > 4,000 ft AGL from Temp-Dew spread
Ceiling4,400 ft
Temp21°C (ISA +7)
Dew Point11°C (53% RH)
AAT18.5°C
QNH1015 hPa
Density Alt1,709 ft
Elevation728 ft
Report Wrong Elevation
Raw Report
METAR KUGN 241655Z 30008G16KT 10SM BKN044 BKN065 BKN080 21/11 A2996
RMK AO2 SLP140 T02060106=

Extra information for KUGN:More info

Metar Taf Metar & Taf Last 4 Metars F.Rules Stats Wind Profile Meteogram Temp Stats Airport Information Weather charts Add Link Nearby VenuesMetar ALERT Operation Metar Decoded Social comments

AIRNAV info for KUGN